Terminal Aerodrome Forecast
Issued by NWS Louisville, KY

Home | Current Version | Previous Version | Text Only | Print | Product List | Glossary On
Versions: 1 2 3 4 5 6 7 8 9 10 11 12 13 14
000
FTUS43 KLMK 272300
TAFLEX
TAF
KLEX 272325Z 2800/2824 20010KT P6SM SKC
     FM280300 19009KT P6SM SCT250 WS012/20038KT
     FM281400 21013G20KT P6SM BKN040
     FM281900 24012KT P6SM SHRA BKN035=

USA.gov is the U.S. government's official web portal to all federal, state and local government web resources and services.